sensor_id;sensor_type;location;lat;lon;timestamp;pressure;altitude;pressure_sealevel;temperature;humidity
60465;BME280;46314;52.392;9.758;2023-01-29T00:01:19;102103.19;;;3.29;65.82
60465;BME280;46314;52.392;9.758;2023-01-29T00:03:49;102103.56;;;3.46;65.53
60465;BME280;46314;52.392;9.758;2023-01-29T00:06:16;102101.09;;;3.69;64.78
60465;BME280;46314;52.392;9.758;2023-01-29T00:08:42;102102.41;;;3.98;63.55
60465;BME280;46314;52.392;9.758;2023-01-29T00:11:08;102099.22;;;3.70;64.50
60465;BME280;46314;52.392;9.758;2023-01-29T00:13:35;102098.66;;;3.54;65.57
60465;BME280;46314;52.392;9.758;2023-01-29T00:16:02;102098.44;;;3.56;65.81
60465;BME280;46314;52.392;9.758;2023-01-29T00:18:30;102083.72;;;4.14;63.57
60465;BME280;46314;52.392;9.758;2023-01-29T00:20:57;102083.72;;;3.82;64.75
60465;BME280;46314;52.392;9.758;2023-01-29T00:23:23;102084.91;;;3.61;65.29
60465;BME280;46314;52.392;9.758;2023-01-29T00:25:50;102090.94;;;4.08;64.08
60465;BME280;46314;52.392;9.758;2023-01-29T00:28:16;102084.75;;;3.88;64.52
60465;BME280;46314;52.392;9.758;2023-01-29T00:30:43;102088.06;;;3.65;65.65
60465;BME280;46314;52.392;9.758;2023-01-29T00:33:09;102083.41;;;3.65;65.55
60465;BME280;46314;52.392;9.758;2023-01-29T00:35:38;102084.81;;;3.74;65.60
60465;BME280;46314;52.392;9.758;2023-01-29T00:38:04;102083.16;;;3.73;65.20
60465;BME280;46314;52.392;9.758;2023-01-29T00:40:31;102079.69;;;3.85;65.14
60465;BME280;46314;52.392;9.758;2023-01-29T00:42:58;102085.56;;;3.56;66.00
60465;BME280;46314;52.392;9.758;2023-01-29T00:45:24;102087.63;;;3.16;66.67
60465;BME280;46314;52.392;9.758;2023-01-29T00:47:50;102088.31;;;3.50;66.37
60465;BME280;46314;52.392;9.758;2023-01-29T00:50:17;102082.00;;;3.49;65.55
60465;BME280;46314;52.392;9.758;2023-01-29T00:52:45;102082.22;;;3.48;65.88
60465;BME280;46314;52.392;9.758;2023-01-29T00:55:12;102080.25;;;3.62;65.03
60465;BME280;46314;52.392;9.758;2023-01-29T00:57:38;102075.69;;;2.97;67.76
60465;BME280;46314;52.392;9.758;2023-01-29T01:00:07;102072.09;;;3.03;67.61
60465;BME280;46314;52.392;9.758;2023-01-29T01:02:34;102083.78;;;3.69;65.66
60465;BME280;46314;52.392;9.758;2023-01-29T01:05:01;102087.16;;;4.03;64.76
60465;BME280;46314;52.392;9.758;2023-01-29T01:07:28;102081.97;;;3.94;65.10
60465;BME280;46314;52.392;9.758;2023-01-29T01:09:55;102082.13;;;3.68;65.68
60465;BME280;46314;52.392;9.758;2023-01-29T01:12:22;102071.16;;;4.00;64.74
60465;BME280;46314;52.392;9.758;2023-01-29T01:14:48;102069.84;;;4.02;64.54
60465;BME280;46314;52.392;9.758;2023-01-29T01:17:15;102066.09;;;3.96;64.38
60465;BME280;46314;52.392;9.758;2023-01-29T01:19:42;102063.19;;;3.59;65.37
60465;BME280;46314;52.392;9.758;2023-01-29T01:22:08;102054.59;;;3.42;66.48
60465;BME280;46314;52.392;9.758;2023-01-29T01:24:35;102049.63;;;3.96;65.52
60465;BME280;46314;52.392;9.758;2023-01-29T01:27:03;102047.53;;;3.92;64.89
60465;BME280;46314;52.392;9.758;2023-01-29T01:29:29;102048.84;;;3.12;67.07
60465;BME280;46314;52.392;9.758;2023-01-29T01:31:56;102039.19;;;3.10;67.06
60465;BME280;46314;52.392;9.758;2023-01-29T01:34:22;102032.72;;;2.84;68.78
60465;BME280;46314;52.392;9.758;2023-01-29T01:36:49;102033.34;;;3.38;66.89
60465;BME280;46314;52.392;9.758;2023-01-29T01:39:15;102033.47;;;3.50;66.82
60465;BME280;46314;52.392;9.758;2023-01-29T01:41:42;102027.94;;;3.18;67.30
60465;BME280;46314;52.392;9.758;2023-01-29T01:47:09;102020.31;;;2.81;67.41
60465;BME280;46314;52.392;9.758;2023-01-29T01:49:36;102023.97;;;3.14;67.28
60465;BME280;46314;52.392;9.758;2023-01-29T01:52:03;102017.63;;;2.61;68.22
60465;BME280;46314;52.392;9.758;2023-01-29T01:54:30;102016.47;;;2.89;69.06
60465;BME280;46314;52.392;9.758;2023-01-29T01:56:59;102012.53;;;2.65;68.83
60465;BME280;46314;52.392;9.758;2023-01-29T01:59:28;102023.63;;;2.90;68.64
60465;BME280;46314;52.392;9.758;2023-01-29T02:01:55;102025.78;;;2.81;68.20
60465;BME280;46314;52.392;9.758;2023-01-29T02:04:24;102027.34;;;2.37;70.64
60465;BME280;46314;52.392;9.758;2023-01-29T02:06:52;102026.09;;;3.12;68.85
60465;BME280;46314;52.392;9.758;2023-01-29T02:09:21;102030.59;;;2.93;69.85
60465;BME280;46314;52.392;9.758;2023-01-29T02:11:49;102027.13;;;2.59;70.92
60465;BME280;46314;52.392;9.758;2023-01-29T02:14:16;102029.44;;;2.55;70.12
60465;BME280;46314;52.392;9.758;2023-01-29T02:16:42;102027.53;;;2.56;70.62
60465;BME280;46314;52.392;9.758;2023-01-29T02:19:15;102029.56;;;2.87;68.78
60465;BME280;46314;52.392;9.758;2023-01-29T02:24:52;102050.97;;;3.10;68.72
60465;BME280;46314;52.392;9.758;2023-01-29T02:27:31;102051.19;;;3.09;68.10
60465;BME280;46314;52.392;9.758;2023-01-29T02:30:05;102051.81;;;3.04;68.66
60465;BME280;46314;52.392;9.758;2023-01-29T02:32:40;102060.78;;;3.70;67.04
60465;BME280;46314;52.392;9.758;2023-01-29T02:35:12;102065.66;;;3.68;66.64
60465;BME280;46314;52.392;9.758;2023-01-29T02:37:45;102075.28;;;3.45;66.21
60465;BME280;46314;52.392;9.758;2023-01-29T02:40:22;102067.31;;;2.72;69.02
60465;BME280;46314;52.392;9.758;2023-01-29T02:42:56;102076.50;;;3.56;66.40
60465;BME280;46314;52.392;9.758;2023-01-29T02:45:32;102073.38;;;3.84;65.79
60465;BME280;46314;52.392;9.758;2023-01-29T02:48:01;102065.53;;;3.56;65.98
60465;BME280;46314;52.392;9.758;2023-01-29T02:50:31;102065.34;;;3.51;66.32
60465;BME280;46314;52.392;9.758;2023-01-29T02:53:02;102069.44;;;3.35;66.88
60465;BME280;46314;52.392;9.758;2023-01-29T02:55:34;102070.00;;;3.50;65.96
60465;BME280;46314;52.392;9.758;2023-01-29T02:58:08;102068.28;;;3.49;65.53
60465;BME280;46314;52.392;9.758;2023-01-29T03:00:39;102061.84;;;3.30;65.76
60465;BME280;46314;52.392;9.758;2023-01-29T03:03:12;102059.59;;;3.59;65.96
60465;BME280;46314;52.392;9.758;2023-01-29T03:05:44;102056.13;;;3.38;65.90
60465;BME280;46314;52.392;9.758;2023-01-29T03:08:17;102045.19;;;3.25;65.99
60465;BME280;46314;52.392;9.758;2023-01-29T03:10:50;102035.53;;;2.64;67.11
60465;BME280;46314;52.392;9.758;2023-01-29T03:13:20;102034.63;;;2.83;67.52
60465;BME280;46314;52.392;9.758;2023-01-29T03:15:58;102031.69;;;3.30;66.41
60465;BME280;46314;52.392;9.758;2023-01-29T03:18:29;102027.16;;;3.81;64.24
60465;BME280;46314;52.392;9.758;2023-01-29T03:21:00;102035.00;;;3.39;64.66
60465;BME280;46314;52.392;9.758;2023-01-29T03:23:29;102034.22;;;2.73;66.07
60465;BME280;46314;52.392;9.758;2023-01-29T03:25:58;102033.28;;;3.06;66.41
60465;BME280;46314;52.392;9.758;2023-01-29T03:28:26;102030.50;;;2.47;67.42
60465;BME280;46314;52.392;9.758;2023-01-29T03:30:59;102032.09;;;2.89;66.74
60465;BME280;46314;52.392;9.758;2023-01-29T03:33:29;102031.31;;;3.58;64.29
60465;BME280;46314;52.392;9.758;2023-01-29T03:35:59;102027.34;;;3.54;64.18
60465;BME280;46314;52.392;9.758;2023-01-29T03:38:27;102029.34;;;3.34;64.54
60465;BME280;46314;52.392;9.758;2023-01-29T03:40:57;102026.69;;;3.20;64.86
60465;BME280;46314;52.392;9.758;2023-01-29T03:43:30;102026.28;;;3.17;64.91
60465;BME280;46314;52.392;9.758;2023-01-29T03:46:04;102011.84;;;2.83;65.80
60465;BME280;46314;52.392;9.758;2023-01-29T03:48:34;102015.25;;;2.78;65.61
60465;BME280;46314;52.392;9.758;2023-01-29T03:51:11;102013.03;;;3.00;65.38
60465;BME280;46314;52.392;9.758;2023-01-29T03:53:42;102013.75;;;3.34;64.40
60465;BME280;46314;52.392;9.758;2023-01-29T03:56:20;102013.41;;;3.17;64.20
60465;BME280;46314;52.392;9.758;2023-01-29T03:58:56;102007.31;;;3.15;64.65
60465;BME280;46314;52.392;9.758;2023-01-29T04:01:30;102002.97;;;3.39;63.52
60465;BME280;46314;52.392;9.758;2023-01-29T04:04:01;102007.16;;;3.42;63.13
60465;BME280;46314;52.392;9.758;2023-01-29T04:06:33;101991.19;;;3.64;62.84
60465;BME280;46314;52.392;9.758;2023-01-29T04:09:04;101993.19;;;3.50;62.71
60465;BME280;46314;52.392;9.758;2023-01-29T04:11:35;101993.91;;;3.32;63.24
60465;BME280;46314;52.392;9.758;2023-01-29T04:14:04;101991.75;;;3.02;63.78
60465;BME280;46314;52.392;9.758;2023-01-29T04:16:36;101986.66;;;3.76;62.83
60465;BME280;46314;52.392;9.758;2023-01-29T04:19:04;101981.75;;;3.21;63.81
60465;BME280;46314;52.392;9.758;2023-01-29T04:21:31;101972.75;;;3.08;63.14
60465;BME280;46314;52.392;9.758;2023-01-29T04:23:57;101971.31;;;3.69;62.33
60465;BME280;46314;52.392;9.758;2023-01-29T04:26:32;101961.81;;;3.39;62.09
60465;BME280;46314;52.392;9.758;2023-01-29T04:29:15;101948.03;;;3.14;63.22
60465;BME280;46314;52.392;9.758;2023-01-29T04:31:50;101948.25;;;3.13;64.51
60465;BME280;46314;52.392;9.758;2023-01-29T04:34:24;101944.47;;;3.46;62.76
60465;BME280;46314;52.392;9.758;2023-01-29T04:37:01;101943.72;;;2.93;64.16
60465;BME280;46314;52.392;9.758;2023-01-29T04:39:35;101939.16;;;2.80;64.85
60465;BME280;46314;52.392;9.758;2023-01-29T04:42:11;101929.16;;;2.99;64.24
60465;BME280;46314;52.392;9.758;2023-01-29T04:44:42;101922.81;;;3.63;62.19
60465;BME280;46314;52.392;9.758;2023-01-29T04:47:18;101921.56;;;3.58;62.34
60465;BME280;46314;52.392;9.758;2023-01-29T04:49:55;101927.97;;;2.89;63.43
60465;BME280;46314;52.392;9.758;2023-01-29T04:52:32;101924.91;;;3.35;63.14
60465;BME280;46314;52.392;9.758;2023-01-29T04:55:05;101933.28;;;3.15;63.41
60465;BME280;46314;52.392;9.758;2023-01-29T04:57:39;101923.31;;;3.53;62.29
60465;BME280;46314;52.392;9.758;2023-01-29T05:00:09;101914.75;;;3.11;63.35
60465;BME280;46314;52.392;9.758;2023-01-29T05:02:40;101911.81;;;3.06;63.81
60465;BME280;46314;52.392;9.758;2023-01-29T05:05:09;101912.84;;;3.43;62.77
60465;BME280;46314;52.392;9.758;2023-01-29T05:07:37;101906.16;;;3.64;62.22
60465;BME280;46314;52.392;9.758;2023-01-29T05:10:06;101917.44;;;3.49;63.36
60465;BME280;46314;52.392;9.758;2023-01-29T05:12:35;101918.28;;;3.75;62.55
60465;BME280;46314;52.392;9.758;2023-01-29T05:15:07;101917.75;;;3.85;61.93
60465;BME280;46314;52.392;9.758;2023-01-29T05:17:37;101905.75;;;4.04;60.62
60465;BME280;46314;52.392;9.758;2023-01-29T05:20:07;101901.22;;;3.91;61.23
60465;BME280;46314;52.392;9.758;2023-01-29T05:22:36;101900.91;;;3.81;61.66
60465;BME280;46314;52.392;9.758;2023-01-29T05:25:19;101904.78;;;3.48;62.69
60465;BME280;46314;52.392;9.758;2023-01-29T05:27:47;101909.41;;;3.98;61.69
60465;BME280;46314;52.392;9.758;2023-01-29T05:30:14;101917.00;;;3.52;61.72
60465;BME280;46314;52.392;9.758;2023-01-29T05:32:41;101913.53;;;3.89;61.19
60465;BME280;46314;52.392;9.758;2023-01-29T05:35:09;101923.25;;;3.59;61.14
60465;BME280;46314;52.392;9.758;2023-01-29T05:37:36;101931.09;;;3.31;62.65
60465;BME280;46314;52.392;9.758;2023-01-29T05:40:03;101931.38;;;3.48;61.92
60465;BME280;46314;52.392;9.758;2023-01-29T05:42:29;101917.41;;;4.00;61.23
60465;BME280;46314;52.392;9.758;2023-01-29T05:44:56;101925.00;;;3.54;62.21
60465;BME280;46314;52.392;9.758;2023-01-29T05:47:22;101927.84;;;3.66;61.95
60465;BME280;46314;52.392;9.758;2023-01-29T05:49:48;101925.97;;;3.66;61.43
60465;BME280;46314;52.392;9.758;2023-01-29T05:52:16;101934.47;;;2.88;63.96
60465;BME280;46314;52.392;9.758;2023-01-29T05:54:43;101928.63;;;3.98;61.77
60465;BME280;46314;52.392;9.758;2023-01-29T05:57:09;101932.75;;;3.57;61.89
60465;BME280;46314;52.392;9.758;2023-01-29T05:59:36;101932.66;;;3.70;62.16
60465;BME280;46314;52.392;9.758;2023-01-29T06:02:02;101944.88;;;3.74;61.81
60465;BME280;46314;52.392;9.758;2023-01-29T06:04:29;101948.06;;;4.15;60.71
60465;BME280;46314;52.392;9.758;2023-01-29T06:06:55;101949.00;;;3.58;62.30
60465;BME280;46314;52.392;9.758;2023-01-29T06:09:23;101945.91;;;3.16;63.39
60465;BME280;46314;52.392;9.758;2023-01-29T06:11:49;101944.13;;;3.60;63.25
60465;BME280;46314;52.392;9.758;2023-01-29T06:14:16;101947.22;;;3.71;62.13
60465;BME280;46314;52.392;9.758;2023-01-29T06:16:42;101949.59;;;3.35;62.23
60465;BME280;46314;52.392;9.758;2023-01-29T06:19:09;101948.38;;;3.31;63.55
60465;BME280;46314;52.392;9.758;2023-01-29T06:21:35;101933.63;;;3.83;61.78
60465;BME280;46314;52.392;9.758;2023-01-29T06:24:02;101930.00;;;3.00;64.50
60465;BME280;46314;52.392;9.758;2023-01-29T06:26:29;101936.09;;;3.02;63.51
60465;BME280;46314;52.392;9.758;2023-01-29T06:28:56;101948.97;;;3.33;62.94
60465;BME280;46314;52.392;9.758;2023-01-29T06:31:22;101943.81;;;3.50;63.21
60465;BME280;46314;52.392;9.758;2023-01-29T06:34:03;101946.88;;;3.60;62.19
60465;BME280;46314;52.392;9.758;2023-01-29T06:36:29;101943.59;;;3.77;62.32
60465;BME280;46314;52.392;9.758;2023-01-29T06:38:56;101947.47;;;2.99;64.39
60465;BME280;46314;52.392;9.758;2023-01-29T06:41:22;101940.91;;;3.70;63.30
60465;BME280;46314;52.392;9.758;2023-01-29T06:43:50;101938.59;;;3.67;61.98
60465;BME280;46314;52.392;9.758;2023-01-29T06:46:16;101939.72;;;2.96;64.55
60465;BME280;46314;52.392;9.758;2023-01-29T06:48:43;101946.56;;;3.50;64.47
60465;BME280;46314;52.392;9.758;2023-01-29T06:51:10;101933.50;;;3.71;62.96
60465;BME280;46314;52.392;9.758;2023-01-29T06:53:37;101932.81;;;4.01;62.40
60465;BME280;46314;52.392;9.758;2023-01-29T06:56:05;101940.53;;;3.03;65.07
60465;BME280;46314;52.392;9.758;2023-01-29T06:58:32;101943.97;;;3.81;63.28
60465;BME280;46314;52.392;9.758;2023-01-29T07:01:03;101964.72;;;3.45;63.43
60465;BME280;46314;52.392;9.758;2023-01-29T07:03:30;101979.31;;;3.70;63.31
60465;BME280;46314;52.392;9.758;2023-01-29T07:05:57;101973.34;;;3.48;63.98
60465;BME280;46314;52.392;9.758;2023-01-29T07:08:23;101972.28;;;3.49;63.68
60465;BME280;46314;52.392;9.758;2023-01-29T07:10:49;101969.97;;;3.46;64.07
60465;BME280;46314;52.392;9.758;2023-01-29T07:13:16;101977.47;;;3.64;62.91
60465;BME280;46314;52.392;9.758;2023-01-29T07:15:42;101981.28;;;3.63;63.15
60465;BME280;46314;52.392;9.758;2023-01-29T07:18:10;101969.28;;;3.26;64.12
60465;BME280;46314;52.392;9.758;2023-01-29T07:20:37;101967.84;;;3.80;62.88
60465;BME280;46314;52.392;9.758;2023-01-29T07:23:04;101965.81;;;3.69;62.74
60465;BME280;46314;52.392;9.758;2023-01-29T07:25:32;101973.31;;;3.55;63.53
60465;BME280;46314;52.392;9.758;2023-01-29T07:27:59;101975.47;;;2.69;66.57
60465;BME280;46314;52.392;9.758;2023-01-29T07:30:26;101951.41;;;3.48;65.20
60465;BME280;46314;52.392;9.758;2023-01-29T07:32:53;101933.41;;;2.37;68.07
60465;BME280;46314;52.392;9.758;2023-01-29T07:35:20;101940.00;;;2.81;68.67
60465;BME280;46314;52.392;9.758;2023-01-29T07:37:48;101936.63;;;3.17;66.76
60465;BME280;46314;52.392;9.758;2023-01-29T07:40:14;101936.31;;;3.32;66.89
60465;BME280;46314;52.392;9.758;2023-01-29T07:42:41;101942.84;;;3.06;67.27
60465;BME280;46314;52.392;9.758;2023-01-29T07:45:09;101933.81;;;3.63;65.88
60465;BME280;46314;52.392;9.758;2023-01-29T07:47:36;101937.84;;;3.28;66.31
60465;BME280;46314;52.392;9.758;2023-01-29T07:50:04;101941.25;;;2.85;69.56
60465;BME280;46314;52.392;9.758;2023-01-29T07:52:32;101916.94;;;3.59;67.18
60465;BME280;46314;52.392;9.758;2023-01-29T07:54:59;101901.97;;;2.59;69.87
60465;BME280;46314;52.392;9.758;2023-01-29T07:57:25;101889.28;;;2.65;69.85
60465;BME280;46314;52.392;9.758;2023-01-29T07:59:51;101884.88;;;2.64;71.61
60465;BME280;46314;52.392;9.758;2023-01-29T08:02:18;101902.50;;;2.81;70.79
60465;BME280;46314;52.392;9.758;2023-01-29T08:04:44;101899.44;;;3.53;68.03
60465;BME280;46314;52.392;9.758;2023-01-29T08:07:11;101899.31;;;3.16;69.13
60465;BME280;46314;52.392;9.758;2023-01-29T08:09:39;101911.44;;;3.02;70.73
60465;BME280;46314;52.392;9.758;2023-01-29T08:12:05;101911.16;;;3.42;69.76
60465;BME280;46314;52.392;9.758;2023-01-29T08:14:32;101906.34;;;3.88;68.19
60465;BME280;46314;52.392;9.758;2023-01-29T08:16:58;101903.53;;;3.44;69.71
60465;BME280;46314;52.392;9.758;2023-01-29T08:19:25;101915.75;;;3.16;71.21
60465;BME280;46314;52.392;9.758;2023-01-29T08:21:51;101904.63;;;3.43;69.07
60465;BME280;46314;52.392;9.758;2023-01-29T08:24:18;101903.91;;;3.22;70.55
60465;BME280;46314;52.392;9.758;2023-01-29T08:26:46;101905.69;;;3.42;70.72
60465;BME280;46314;52.392;9.758;2023-01-29T08:29:12;101905.88;;;3.66;68.60
60465;BME280;46314;52.392;9.758;2023-01-29T08:31:39;101906.91;;;2.31;73.34
60465;BME280;46314;52.392;9.758;2023-01-29T08:34:05;101910.34;;;3.10;71.29
60465;BME280;46314;52.392;9.758;2023-01-29T08:36:32;101916.09;;;2.95;72.10
60465;BME280;46314;52.392;9.758;2023-01-29T08:38:58;101916.03;;;3.40;70.53
60465;BME280;46314;52.392;9.758;2023-01-29T08:41:25;101904.03;;;3.85;69.13
60465;BME280;46314;52.392;9.758;2023-01-29T08:43:52;101904.88;;;2.64;72.78
60465;BME280;46314;52.392;9.758;2023-01-29T08:46:19;101901.84;;;2.79;73.30
60465;BME280;46314;52.392;9.758;2023-01-29T08:48:45;101892.78;;;3.17;71.32
60465;BME280;46314;52.392;9.758;2023-01-29T08:51:12;101891.22;;;2.58;73.24
60465;BME280;46314;52.392;9.758;2023-01-29T08:53:38;101903.53;;;2.80;73.32
60465;BME280;46314;52.392;9.758;2023-01-29T08:56:05;101900.81;;;3.44;71.25
60465;BME280;46314;52.392;9.758;2023-01-29T08:58:32;101894.97;;;3.02;71.23
60465;BME280;46314;52.392;9.758;2023-01-29T09:01:05;101890.78;;;2.99;71.80
60465;BME280;46314;52.392;9.758;2023-01-29T09:03:32;101890.16;;;3.29;71.54
60465;BME280;46314;52.392;9.758;2023-01-29T09:05:59;101888.13;;;3.18;70.35
60465;BME280;46314;52.392;9.758;2023-01-29T09:08:26;101883.78;;;4.04;69.15
60465;BME280;46314;52.392;9.758;2023-01-29T09:10:52;101894.31;;;4.44;67.46
60465;BME280;46314;52.392;9.758;2023-01-29T09:13:19;101887.53;;;4.28;67.16
60465;BME280;46314;52.392;9.758;2023-01-29T09:15:45;101865.00;;;3.64;69.10
60465;BME280;46314;52.392;9.758;2023-01-29T09:18:13;101867.53;;;3.34;70.40
60465;BME280;46314;52.392;9.758;2023-01-29T09:20:39;101857.41;;;3.59;70.57
60465;BME280;46314;52.392;9.758;2023-01-29T09:23:06;101862.34;;;3.26;70.46
60465;BME280;46314;52.392;9.758;2023-01-29T09:25:33;101847.19;;;3.23;71.04
60465;BME280;46314;52.392;9.758;2023-01-29T09:28:00;101851.13;;;3.02;72.14
60465;BME280;46314;52.392;9.758;2023-01-29T09:30:27;101842.50;;;3.55;71.39
60465;BME280;46314;52.392;9.758;2023-01-29T09:32:54;101845.47;;;2.97;71.12
60465;BME280;46314;52.392;9.758;2023-01-29T09:35:22;101851.69;;;3.36;71.40
60465;BME280;46314;52.392;9.758;2023-01-29T09:37:49;101857.13;;;3.17;71.58
60465;BME280;46314;52.392;9.758;2023-01-29T09:40:23;101848.47;;;3.46;69.69
60465;BME280;46314;52.392;9.758;2023-01-29T09:42:55;101848.31;;;3.15;69.65
60465;BME280;46314;52.392;9.758;2023-01-29T09:45:26;101842.06;;;3.95;68.97
60465;BME280;46314;52.392;9.758;2023-01-29T09:47:56;101835.66;;;4.20;67.78
60465;BME280;46314;52.392;9.758;2023-01-29T09:50:29;101835.56;;;4.45;66.65
60465;BME280;46314;52.392;9.758;2023-01-29T09:52:59;101841.91;;;3.90;68.92
60465;BME280;46314;52.392;9.758;2023-01-29T09:55:30;101843.81;;;3.90;67.36
60465;BME280;46314;52.392;9.758;2023-01-29T09:57:59;101838.34;;;4.08;68.21
60465;BME280;46314;52.392;9.758;2023-01-29T10:00:33;101825.91;;;4.24;67.49
60465;BME280;46314;52.392;9.758;2023-01-29T10:03:15;101830.16;;;4.39;66.38
60465;BME280;46314;52.392;9.758;2023-01-29T10:06:03;101825.59;;;3.77;67.77
60465;BME280;46314;52.392;9.758;2023-01-29T10:08:46;101826.59;;;4.38;66.72
60465;BME280;46314;52.392;9.758;2023-01-29T10:11:24;101819.50;;;4.91;64.95
60465;BME280;46314;52.392;9.758;2023-01-29T10:14:05;101823.47;;;5.19;63.53
60465;BME280;46314;52.392;9.758;2023-01-29T10:16:44;101829.03;;;4.09;66.89
60465;BME280;46314;52.392;9.758;2023-01-29T10:19:31;101826.81;;;4.36;65.64
60465;BME280;46314;52.392;9.758;2023-01-29T10:25:09;101828.81;;;3.92;66.82
60465;BME280;46314;52.392;9.758;2023-01-29T10:27:39;101826.31;;;3.66;67.69
60465;BME280;46314;52.392;9.758;2023-01-29T10:30:08;101829.41;;;3.76;68.53
60465;BME280;46314;52.392;9.758;2023-01-29T10:32:44;101825.28;;;4.71;65.93
60465;BME280;46314;52.392;9.758;2023-01-29T10:35:19;101831.59;;;4.41;66.17
60465;BME280;46314;52.392;9.758;2023-01-29T10:37:51;101837.91;;;5.02;64.39
60465;BME280;46314;52.392;9.758;2023-01-29T10:40:20;101826.09;;;4.41;65.61
60465;BME280;46314;52.392;9.758;2023-01-29T10:42:52;101823.59;;;4.70;64.99
60465;BME280;46314;52.392;9.758;2023-01-29T10:45:26;101818.88;;;4.47;66.39
60465;BME280;46314;52.392;9.758;2023-01-29T10:50:44;101811.47;;;4.29;66.53
60465;BME280;46314;52.392;9.758;2023-01-29T10:53:26;101812.72;;;4.45;65.84
60465;BME280;46314;52.392;9.758;2023-01-29T10:56:02;101797.97;;;4.27;67.17
60465;BME280;46314;52.392;9.758;2023-01-29T10:58:50;101789.38;;;4.05;67.85
60465;BME280;46314;52.392;9.758;2023-01-29T11:01:17;101780.94;;;3.70;68.19
60465;BME280;46314;52.392;9.758;2023-01-29T11:03:44;101778.66;;;4.34;65.13
60465;BME280;46314;52.392;9.758;2023-01-29T11:06:14;101772.22;;;4.10;66.72
60465;BME280;46314;52.392;9.758;2023-01-29T11:08:50;101763.53;;;3.94;66.25
60465;BME280;46314;52.392;9.758;2023-01-29T11:11:19;101763.91;;;4.47;65.09
60465;BME280;46314;52.392;9.758;2023-01-29T11:13:51;101762.47;;;4.44;65.53
60465;BME280;46314;52.392;9.758;2023-01-29T11:16:18;101773.34;;;4.21;65.76
60465;BME280;46314;52.392;9.758;2023-01-29T11:18:50;101755.56;;;4.53;64.48
60465;BME280;46314;52.392;9.758;2023-01-29T11:21:17;101751.66;;;3.82;66.47
60465;BME280;46314;52.392;9.758;2023-01-29T11:23:45;101754.50;;;4.24;65.61
60465;BME280;46314;52.392;9.758;2023-01-29T11:26:16;101748.88;;;4.19;65.32
60465;BME280;46314;52.392;9.758;2023-01-29T11:28:48;101744.25;;;4.31;65.71
60465;BME280;46314;52.392;9.758;2023-01-29T11:31:17;101747.00;;;4.62;64.84
60465;BME280;46314;52.392;9.758;2023-01-29T11:33:46;101739.53;;;3.90;65.42
60465;BME280;46314;52.392;9.758;2023-01-29T11:36:24;101739.47;;;4.27;65.14
60465;BME280;46314;52.392;9.758;2023-01-29T11:39:11;101727.72;;;4.20;65.08
60465;BME280;46314;52.392;9.758;2023-01-29T11:41:43;101721.84;;;4.46;64.66
60465;BME280;46314;52.392;9.758;2023-01-29T11:44:17;101710.34;;;4.68;63.48
60465;BME280;46314;52.392;9.758;2023-01-29T11:46:44;101704.34;;;4.17;64.04
60465;BME280;46314;52.392;9.758;2023-01-29T11:49:21;101709.56;;;3.88;65.14
60465;BME280;46314;52.392;9.758;2023-01-29T11:51:51;101705.00;;;3.82;65.96
60465;BME280;46314;52.392;9.758;2023-01-29T11:54:26;101700.47;;;4.36;63.98
60465;BME280;46314;52.392;9.758;2023-01-29T11:56:54;101687.28;;;3.96;64.82
60465;BME280;46314;52.392;9.758;2023-01-29T11:59:29;101682.88;;;4.68;63.21
60465;BME280;46314;52.392;9.758;2023-01-29T12:02:03;101679.63;;;4.29;64.37
60465;BME280;46314;52.392;9.758;2023-01-29T12:04:30;101677.09;;;4.58;63.35
60465;BME280;46314;52.392;9.758;2023-01-29T12:06:57;101679.16;;;4.74;63.10
60465;BME280;46314;52.392;9.758;2023-01-29T12:09:26;101679.50;;;4.24;64.55
60465;BME280;46314;52.392;9.758;2023-01-29T12:11:53;101680.25;;;4.97;62.74
60465;BME280;46314;52.392;9.758;2023-01-29T12:14:26;101674.72;;;4.61;62.95
60465;BME280;46314;52.392;9.758;2023-01-29T12:16:55;101677.25;;;4.98;61.75
60465;BME280;46314;52.392;9.758;2023-01-29T12:19:26;101674.31;;;4.46;63.59
60465;BME280;46314;52.392;9.758;2023-01-29T12:21:59;101659.69;;;4.22;64.35
60465;BME280;46314;52.392;9.758;2023-01-29T12:24:33;101656.38;;;4.43;63.71
60465;BME280;46314;52.392;9.758;2023-01-29T12:27:06;101653.88;;;4.30;64.03
60465;BME280;46314;52.392;9.758;2023-01-29T12:29:43;101663.41;;;4.27;64.36
60465;BME280;46314;52.392;9.758;2023-01-29T12:32:22;101652.78;;;4.19;64.97
60465;BME280;46314;52.392;9.758;2023-01-29T12:34:54;101660.53;;;3.43;65.92
60465;BME280;46314;52.392;9.758;2023-01-29T12:37:25;101659.47;;;3.93;64.84
60465;BME280;46314;52.392;9.758;2023-01-29T12:39:57;101656.38;;;3.71;65.64
60465;BME280;46314;52.392;9.758;2023-01-29T12:42:24;101669.66;;;3.37;67.90
60465;BME280;46314;52.392;9.758;2023-01-29T12:44:52;101656.78;;;4.05;65.32
60465;BME280;46314;52.392;9.758;2023-01-29T12:47:27;101655.44;;;3.47;66.93
60465;BME280;46314;52.392;9.758;2023-01-29T12:50:00;101644.25;;;4.51;63.89
60465;BME280;46314;52.392;9.758;2023-01-29T12:52:36;101634.47;;;4.13;64.68
60465;BME280;46314;52.392;9.758;2023-01-29T12:55:10;101632.94;;;3.56;67.04
60465;BME280;46314;52.392;9.758;2023-01-29T12:57:41;101632.09;;;4.16;65.11
60465;BME280;46314;52.392;9.758;2023-01-29T13:00:13;101628.97;;;4.01;65.47
60465;BME280;46314;52.392;9.758;2023-01-29T13:02:47;101626.53;;;3.63;66.41
60465;BME280;46314;52.392;9.758;2023-01-29T13:05:16;101626.63;;;4.28;64.90
60465;BME280;46314;52.392;9.758;2023-01-29T13:07:48;101616.44;;;4.59;63.33
60465;BME280;46314;52.392;9.758;2023-01-29T13:10:23;101612.00;;;3.92;66.25
60465;BME280;46314;52.392;9.758;2023-01-29T13:12:56;101609.56;;;4.26;64.22
60465;BME280;46314;52.392;9.758;2023-01-29T13:15:29;101612.84;;;4.47;64.14
60465;BME280;46314;52.392;9.758;2023-01-29T13:18:04;101606.00;;;4.49;64.13
60465;BME280;46314;52.392;9.758;2023-01-29T13:20:34;101601.47;;;4.55;63.93
60465;BME280;46314;52.392;9.758;2023-01-29T13:23:09;101593.41;;;3.46;67.39
60465;BME280;46314;52.392;9.758;2023-01-29T13:25:39;101590.69;;;4.18;65.27